createdAt,value
2023-01-28T00:11:54.667Z,1.06
2023-01-28T00:14:56.535Z,0.54
2023-01-28T00:24:46.282Z,1.04
2023-01-28T00:34:06.622Z,0.70
2023-01-28T00:40:32.855Z,0.64
2023-01-28T00:43:55.022Z,1.02
2023-01-28T00:51:13.602Z,0.97
2023-01-28T00:57:43.771Z,0.50
2023-01-28T01:05:15.709Z,0.81
2023-01-28T01:07:46.036Z,0.69
2023-01-28T01:10:30.174Z,0.52
2023-01-28T01:13:13.797Z,0.69
2023-01-28T01:16:12.185Z,0.60
2023-01-28T01:21:55.588Z,0.45
2023-01-28T01:24:40.541Z,0.64
2023-01-28T01:31:23.149Z,0.68
2023-01-28T01:36:49.838Z,0.40
2023-01-28T01:39:21.423Z,0.48
2023-01-28T01:42:01.405Z,0.58
2023-01-28T01:45:29.470Z,0.72
2023-01-28T01:48:22.862Z,0.65
2023-01-28T01:51:20.388Z,0.24
2023-01-28T01:54:30.388Z,0.47
2023-01-28T02:00:29.752Z,0.63
2023-01-28T02:03:51.144Z,0.11
2023-01-28T02:12:05.173Z,0.61
2023-01-28T02:34:23.475Z,0.48
2023-01-28T02:44:32.050Z,0.06
2023-01-28T02:51:17.482Z,0.45
2023-01-28T02:58:05.698Z,0.04
2023-01-28T03:08:17.037Z,-0.06
2023-01-28T03:11:27.143Z,0.20
2023-01-28T03:14:46.038Z,0.41
2023-01-28T03:18:35.550Z,0.25
2023-01-28T03:21:52.357Z,0.21
2023-01-28T03:28:50.744Z,0.44
2023-01-28T03:35:08.653Z,0.38
2023-01-28T03:38:35.925Z,0.34
2023-01-28T03:41:40.746Z,0.05
2023-01-28T03:44:47.096Z,0.03
2023-01-28T03:47:27.934Z,0.31
2023-01-28T03:50:23.548Z,0.30
2023-01-28T04:02:35.620Z,-0.27
2023-01-28T04:11:54.964Z,-0.30
2023-01-28T04:31:37.140Z,0.19
2023-01-28T04:34:28.737Z,0.21
2023-01-28T04:40:25.980Z,0.17
2023-01-28T04:43:02.368Z,-0.24
2023-01-28T04:46:23.142Z,0.03
2023-01-28T04:52:30.138Z,0.10
2023-01-28T05:06:31.970Z,0.08
2023-01-28T05:09:27.827Z,-0.48
2023-01-28T05:12:19.926Z,-0.38
2023-01-28T05:18:24.451Z,-0.24
2023-01-28T05:26:34.126Z,-0.49
2023-01-28T05:29:34.117Z,-0.02
2023-01-28T05:32:18.889Z,-0.34
2023-01-28T05:35:18.939Z,-0.42
2023-01-28T05:38:38.061Z,-0.48
2023-01-28T05:41:26.568Z,-0.20
2023-01-28T05:44:03.533Z,-0.60
2023-01-28T05:47:02.702Z,-0.20
2023-01-28T05:58:59.142Z,-0.58
2023-01-28T06:07:21.615Z,-0.70
2023-01-28T06:10:17.841Z,-0.19
2023-01-28T06:12:56.750Z,-0.65
2023-01-28T06:18:38.969Z,-0.61
2023-01-28T06:32:58.949Z,-0.26
2023-01-28T06:42:34.852Z,-0.49
2023-01-28T07:08:01.312Z,-0.42
2023-01-28T07:11:36.285Z,-0.55
2023-01-28T07:17:53.701Z,-0.83
2023-01-28T08:00:25.129Z,-0.16
2023-01-28T08:03:19.862Z,-0.13
2023-01-28T08:05:49.130Z,-0.30
2023-01-28T08:08:16.484Z,-0.16
2023-01-28T08:10:44.043Z,-0.10
2023-01-28T08:13:11.857Z,-0.01
2023-01-28T08:15:38.847Z,0.04
2023-01-28T08:18:07.534Z,0.02
2023-01-28T08:20:34.390Z,0.09
2023-01-28T08:23:18.311Z,0.14
2023-01-28T08:25:45.706Z,0.14
2023-01-28T08:28:13.821Z,0.13
2023-01-28T08:30:40.784Z,0.02
2023-01-28T08:33:09.373Z,0.07
2023-01-28T08:35:36.495Z,0.11
2023-01-28T08:38:04.206Z,0.23
2023-01-28T08:40:31.027Z,0.16
2023-01-28T08:42:58.058Z,0.18
2023-01-28T08:45:27.996Z,0.12
2023-01-28T08:47:58.528Z,0.21
2023-01-28T08:50:26.782Z,0.20
2023-01-28T08:52:58.382Z,0.36
2023-01-28T08:55:26.391Z,0.31
2023-01-28T08:57:53.041Z,0.19
2023-01-28T09:00:22.331Z,0.19
2023-01-28T09:43:37.117Z,0.97
2023-01-28T09:46:07.015Z,0.89
2023-01-28T09:48:40.002Z,0.91
2023-01-28T09:51:18.735Z,0.97
2023-01-28T09:53:53.054Z,1.04
2023-01-28T09:56:26.703Z,1.22
2023-01-28T09:58:53.142Z,1.29
2023-01-28T11:16:50.225Z,2.56
2023-01-28T11:19:19.361Z,2.86
2023-01-28T11:21:53.996Z,4.87
2023-01-28T11:24:29.085Z,6.34
2023-01-28T11:26:57.600Z,7.67
2023-01-28T11:29:28.670Z,8.23
2023-01-28T11:31:55.700Z,8.69
2023-01-28T11:34:28.235Z,8.90
2023-01-28T11:37:03.629Z,7.77
2023-01-28T11:39:30.743Z,6.67
2023-01-28T11:42:19.557Z,5.92
2023-01-28T11:44:47.225Z,5.69
2023-01-28T11:47:32.020Z,6.21
2023-01-28T11:50:25.309Z,6.79
2023-01-28T11:53:07.080Z,6.68
2023-01-28T11:55:57.197Z,6.94
2023-01-28T11:58:55.623Z,7.78
2023-01-28T12:01:43.224Z,8.69
2023-01-28T12:04:47.851Z,8.65
2023-01-28T12:07:37.297Z,9.88
2023-01-28T12:10:26.744Z,11.08
2023-01-28T12:13:09.007Z,11.96
2023-01-28T12:35:11.383Z,13.80
2023-01-28T12:37:50.935Z,13.99
2023-01-28T12:40:30.932Z,14.41
2023-01-28T12:43:08.345Z,14.44
2023-01-28T12:45:50.519Z,13.07
2023-01-28T12:48:29.361Z,10.54
2023-01-28T12:54:32.520Z,7.51
2023-01-28T12:57:26.184Z,6.98
2023-01-28T13:00:22.376Z,6.62
2023-01-28T13:03:29.326Z,5.91
2023-01-28T13:06:15.372Z,5.47
2023-01-28T13:08:41.998Z,5.35
2023-01-28T13:12:13.601Z,4.91
2023-01-28T13:14:40.426Z,5.31
2023-01-28T13:17:24.540Z,4.86
2023-01-28T13:19:52.459Z,4.76
2023-01-28T13:22:31.778Z,4.62
2023-01-28T13:25:29.709Z,4.36
2023-01-28T13:28:07.581Z,4.16
2023-01-28T13:30:47.007Z,4.20
2023-01-28T13:33:31.081Z,4.15
2023-01-28T13:36:01.588Z,4.44
2023-01-28T13:38:29.847Z,4.25
2023-01-28T13:41:06.422Z,4.38
2023-01-28T13:43:41.601Z,5.10
2023-01-28T13:46:12.014Z,4.88
2023-01-28T13:48:41.201Z,5.11
2023-01-28T13:51:25.620Z,4.95
2023-01-28T13:54:10.949Z,5.02
2023-01-28T13:56:56.104Z,5.12
2023-01-28T13:59:34.648Z,5.06
2023-01-28T14:02:32.981Z,4.92
2023-01-28T14:05:26.724Z,4.76
2023-01-28T14:08:15.091Z,4.81
2023-01-28T14:11:10.858Z,4.62
2023-01-28T14:13:54.379Z,4.33
2023-01-28T14:16:36.012Z,4.21
2023-01-28T14:19:03.308Z,3.88
2023-01-28T14:21:37.108Z,3.57
2023-01-28T14:24:04.565Z,3.35
2023-01-28T14:26:46.743Z,3.26
2023-01-28T14:30:02.715Z,3.32
2023-01-28T14:32:31.166Z,3.37
2023-01-28T14:35:02.071Z,3.36
2023-01-28T14:37:31.626Z,3.37
2023-01-28T14:40:13.158Z,3.41
2023-01-28T14:42:55.385Z,3.34
2023-01-28T14:46:12.098Z,3.23
2023-01-28T14:49:15.706Z,3.12
2023-01-28T14:52:11.674Z,3.09
2023-01-28T14:54:54.451Z,2.97
2023-01-28T14:57:38.911Z,2.99
2023-01-28T15:00:36.860Z,2.91
2023-01-28T15:03:26.369Z,2.85
2023-01-28T15:06:12.741Z,2.74
2023-01-28T15:08:42.426Z,2.66
2023-01-28T15:11:13.295Z,2.53
2023-01-28T15:13:45.812Z,2.45
2023-01-28T15:16:23.022Z,2.39
2023-01-28T15:18:53.013Z,2.40
2023-01-28T15:21:21.164Z,2.32
2023-01-28T15:23:51.824Z,2.25
2023-01-28T15:26:21.320Z,2.20
2023-01-28T15:28:48.718Z,2.12
2023-01-28T15:31:22.911Z,2.10
2023-01-28T15:34:17.842Z,2.02
2023-01-28T15:36:44.632Z,2.03
2023-01-28T15:39:22.570Z,2.02
2023-01-28T15:41:56.700Z,1.96
2023-01-28T15:47:35.092Z,1.93
2023-01-28T15:50:04.927Z,1.85
2023-01-28T15:52:42.177Z,1.67
2023-01-28T15:55:31.045Z,1.66
2023-01-28T15:57:57.641Z,1.56
2023-01-28T16:00:25.601Z,1.46
2023-01-28T16:02:55.258Z,1.34
2023-01-28T16:05:39.284Z,1.24
2023-01-28T16:08:12.049Z,1.11
2023-01-28T16:10:38.719Z,1.02
2023-01-28T16:13:10.763Z,0.94
2023-01-28T16:15:39.217Z,0.86
2023-01-28T16:18:06.856Z,0.74
2023-01-28T16:20:33.671Z,0.69
2023-01-28T16:23:02.908Z,0.47
2023-01-28T16:25:32.325Z,0.52
2023-01-28T16:28:00.849Z,0.38
2023-01-28T16:30:28.524Z,0.33
2023-01-28T16:32:56.150Z,0.25
2023-01-28T16:35:42.495Z,0.09
2023-01-28T16:38:18.280Z,0.16
2023-01-28T16:40:45.879Z,0.16
2023-01-28T16:43:15.117Z,0.19
2023-01-28T16:45:42.604Z,0.27
2023-01-28T16:48:09.100Z,0.27
2023-01-28T16:50:39.918Z,0.25
2023-01-28T16:53:23.202Z,0.37
2023-01-28T16:55:50.922Z,0.35
2023-01-28T16:58:25.142Z,0.42
2023-01-28T17:00:51.755Z,0.42
2023-01-28T17:03:18.161Z,0.49
2023-01-28T17:05:44.531Z,0.42
2023-01-28T17:08:19.542Z,0.34
2023-01-28T17:11:27.612Z,0.14
2023-01-28T17:15:07.828Z,-0.11
2023-01-28T17:17:34.266Z,0.11
2023-01-28T17:20:05.362Z,-0.04
2023-01-28T17:22:45.992Z,-0.03
2023-01-28T17:25:12.824Z,0.15
2023-01-28T17:27:39.615Z,0.15
2023-01-28T17:30:07.047Z,0.02
2023-01-28T17:32:33.555Z,0.13
2023-01-28T17:34:59.928Z,0.12
2023-01-28T17:37:26.350Z,0.13
2023-01-28T17:39:52.755Z,0.11
2023-01-28T17:42:19.163Z,0.13
2023-01-28T17:44:45.563Z,0.07
2023-01-28T17:47:14.529Z,-0.05
2023-01-28T17:49:40.897Z,-0.17
2023-01-28T17:52:07.310Z,-0.25
2023-01-28T17:54:35.277Z,-0.42
2023-01-28T17:57:01.702Z,-0.48
2023-01-28T17:59:28.121Z,-0.58
2023-01-28T18:01:54.740Z,-0.64
2023-01-28T18:04:21.197Z,-0.73
2023-01-28T18:06:49.247Z,-0.90
2023-01-28T18:09:15.751Z,-0.90
2023-01-28T18:11:42.648Z,-0.93
2023-01-28T18:14:09.106Z,-1.01
2023-01-28T18:16:35.489Z,-1.09
2023-01-28T18:19:01.917Z,-1.14
2023-01-28T18:21:50.522Z,-1.15
2023-01-28T18:24:19.123Z,-1.15
2023-01-28T18:26:47.581Z,-1.24
2023-01-28T18:29:20.394Z,-1.12
2023-01-28T18:31:48.578Z,-1.13
2023-01-28T18:34:15.504Z,-1.03
2023-01-28T18:36:42.295Z,-0.95
2023-01-28T18:39:13.599Z,-0.95
2023-01-28T18:41:40.273Z,-0.79
2023-01-28T18:44:09.000Z,-0.72
2023-01-28T18:46:35.422Z,-0.64
2023-01-28T18:49:01.892Z,-0.56
2023-01-28T18:51:30.480Z,-0.56
2023-01-28T18:54:02.896Z,-0.37
2023-01-28T18:56:30.146Z,-0.27
2023-01-28T18:59:03.893Z,-0.13
2023-01-28T19:01:32.094Z,-0.12
2023-01-28T19:03:59.502Z,-0.24
2023-01-28T19:06:28.223Z,-0.24
2023-01-28T19:08:57.124Z,-0.12
2023-01-28T19:11:25.767Z,-0.08
2023-01-28T19:13:52.973Z,-0.21
2023-01-28T19:16:21.765Z,-0.09
2023-01-28T19:18:59.281Z,-0.12
2023-01-28T19:21:30.358Z,-0.09
2023-01-28T19:23:59.245Z,-0.12
2023-01-28T19:26:27.078Z,-0.22
2023-01-28T19:28:53.768Z,-0.18
2023-01-28T19:31:22.167Z,-0.11
2023-01-28T19:33:51.147Z,-0.10
2023-01-28T19:36:17.537Z,-0.02
2023-01-28T19:38:44.983Z,0.01
2023-01-28T19:41:16.044Z,-0.11
2023-01-28T19:43:43.116Z,-0.04
2023-01-28T19:46:12.923Z,-0.01
2023-01-28T19:48:39.363Z,0.04
2023-01-28T19:51:10.001Z,0.08
2023-01-28T19:53:37.269Z,0.04
2023-01-28T19:56:07.211Z,0.03
2023-01-28T19:58:38.670Z,-0.05
2023-01-28T20:01:07.398Z,0.03
2023-01-28T20:03:34.510Z,-0.09
2023-01-28T20:06:05.336Z,0.02
2023-01-28T20:08:31.882Z,-0.08
2023-01-28T20:11:05.888Z,-0.05
2023-01-28T20:13:34.099Z,-0.04
2023-01-28T20:16:07.680Z,-0.02
2023-01-28T20:18:35.096Z,-0.01
2023-01-28T20:21:01.705Z,0.00
2023-01-28T20:23:28.511Z,-0.11
2023-01-28T20:25:57.772Z,0.01
2023-01-28T20:28:25.217Z,-0.13
2023-01-28T20:30:52.376Z,-0.02
2023-01-28T20:33:19.604Z,-0.05
2023-01-28T20:35:46.135Z,0.03
2023-01-28T20:38:12.799Z,0.03
2023-01-28T20:40:46.063Z,0.03
2023-01-28T20:43:12.476Z,0.08
2023-01-28T20:45:39.205Z,0.05
2023-01-28T20:48:05.947Z,0.01
2023-01-28T20:50:32.407Z,0.06
2023-01-28T20:52:58.879Z,0.02
2023-01-28T20:55:25.437Z,0.09
2023-01-28T20:57:52.433Z,0.11
2023-01-28T21:00:19.376Z,0.10
2023-01-28T21:02:46.393Z,0.06
2023-01-28T21:05:13.464Z,0.01
2023-01-28T21:07:39.946Z,0.01
2023-01-28T21:10:06.935Z,0.04
2023-01-28T21:12:33.389Z,0.10
2023-01-28T21:14:59.791Z,0.04
2023-01-28T21:17:27.547Z,0.07
2023-01-28T21:19:53.999Z,0.09
2023-01-28T21:22:20.384Z,0.02
2023-01-28T21:24:49.125Z,0.05
2023-01-28T21:27:15.691Z,0.07
2023-01-28T21:29:42.476Z,0.13
2023-01-28T21:32:09.037Z,0.10
2023-01-28T21:34:35.608Z,0.08
2023-01-28T21:37:02.103Z,0.12
2023-01-28T21:39:28.532Z,0.11
2023-01-28T21:41:56.106Z,-0.12
2023-01-28T21:44:22.604Z,0.02
2023-01-28T21:46:49.115Z,-0.03
2023-01-28T21:49:15.497Z,0.10
2023-01-28T21:51:47.555Z,-0.05
2023-01-28T21:54:19.400Z,-0.01
2023-01-28T21:56:47.991Z,0.04
2023-01-28T21:59:27.786Z,0.09
2023-01-28T22:02:09.424Z,0.13
2023-01-28T22:04:46.525Z,0.12
2023-01-28T22:07:17.205Z,0.14
2023-01-28T22:09:47.587Z,0.14
2023-01-28T22:12:15.242Z,0.20
2023-01-28T22:14:43.000Z,0.15
2023-01-28T22:17:11.616Z,0.14
2023-01-28T22:19:38.955Z,0.12
2023-01-28T22:22:07.957Z,0.14
2023-01-28T22:24:34.646Z,0.10
2023-01-28T22:27:01.176Z,0.11
2023-01-28T22:29:27.711Z,0.13
2023-01-28T22:31:54.884Z,-0.07
2023-01-28T22:34:22.057Z,0.10
2023-01-28T22:36:53.823Z,0.18
2023-01-28T22:39:20.281Z,0.16
2023-01-28T22:41:47.673Z,0.11
2023-01-28T22:44:14.380Z,0.19
2023-01-28T22:46:40.987Z,0.08
2023-01-28T22:49:07.530Z,0.11
2023-01-28T22:51:35.870Z,0.13
2023-01-28T22:54:03.138Z,0.12
2023-01-28T22:56:30.660Z,0.14
2023-01-28T22:59:02.099Z,0.12
2023-01-28T23:01:33.869Z,0.13
2023-01-28T23:04:00.646Z,0.09
2023-01-28T23:06:30.289Z,0.14
2023-01-28T23:08:59.561Z,0.13
2023-01-28T23:11:27.556Z,0.14
2023-01-28T23:14:16.770Z,0.18
2023-01-28T23:17:02.094Z,0.15
2023-01-28T23:19:47.249Z,0.15
2023-01-28T23:22:40.681Z,0.22
2023-01-28T23:25:07.444Z,0.18
2023-01-28T23:27:34.379Z,0.19
2023-01-28T23:30:00.826Z,0.28
2023-01-28T23:32:27.787Z,0.14
2023-01-28T23:34:54.290Z,0.11
2023-01-28T23:37:20.724Z,0.13
2023-01-28T23:39:47.227Z,0.19
2023-01-28T23:42:20.727Z,0.17
2023-01-28T23:44:47.739Z,0.23
2023-01-28T23:47:14.206Z,0.25
2023-01-28T23:49:41.203Z,0.23
2023-01-28T23:52:08.828Z,0.25
2023-01-28T23:54:35.647Z,0.22
2023-01-28T23:57:03.630Z,0.25
2023-01-28T23:59:30.039Z,0.23
